Roberto Rodrigues

Chief Scout - Atlético Mineiro
3 Dec 2028
Sunday
Process

Personality

Adaptability (9) Ambition (2) Controversy (17) Loyalty (11) Pressure (9) Professionalism (1) Sportsmanship (17) Temperament (13)

Profile

Coaching Style Democratic
License National B
Determination 9
Man Management 11
Motivating 11
Discipline 11
Job Satisfaction
100%
Fatigue
0%
Role Chief Scout
Wage 107.5K p/w
Contract 14.03.2030

Performance

Behaviour Good
Training Effectiveness
59%
Player Development
65%
Injury Prevention
55%
Tactical Implementation
50%

Recent Events

Assessed a player now
Attended a recruitment meeting now
Recommended a transfer target now
Recommended a transfer target now
Recommended a transfer target now
Attended a recruitment meeting now
Assessed a player now
Assessed a player now

Currently Monitoring

355
Player Club Status Ability Confidence Watched Last Observed Latest Vote
Nicolas Jackson Aston Villa Active 157 / 146 40% 18 01.12.2028 -
Ignacio Russo Tigre Negotiating 130 / 126 40% 2 01.12.2028 -
Samu Aghehowa Udinese Active 154 / 166 40% 1 01.12.2028 -
Léo Ortiz Flamengo Active 139 / 126 40% 12 29.11.2028 -
Vitão Flamengo Active 141 / 134 40% 14 29.11.2028 -
Kauã Moraes Flamengo Active 131 / 125 40% 7 29.11.2028 -
Matheuzinho Corinthians Active 137 / 142 40% 9 28.11.2028 -
Caio Alexandre Bahia Active 136 / 133 40% 12 27.11.2028 -
Matheus Bidu Corinthians Active 133 / 125 40% 19 27.11.2028 -
Adrien Truffert Flamengo Active 153 / 157 40% 1 27.11.2028 -
Alexandro Bernabei Internacional Active 142 / 137 40% 11 26.11.2028 -
Guille Rosas Boca Juniors Active 144 / 142 40% 10 26.11.2028 -
Matheus Rossetto Fortaleza Active 126 / 125 40% 4 26.11.2028 -
Rico Henry River Plate Active 138 / 149 40% 14 25.11.2028 -
Souleymane Faye Sporting CP Active 131 / 143 40% 2 25.11.2028 -
André Henrique Juventude Active 125 / 119 40% 2 25.11.2028 -
Endrick Boca Juniors Active 159 / 165 40% 1 25.11.2028 -
Juninho Capixaba Bragantino Active 125 / 132 40% 5 23.11.2028 -
Álex Valle Boca Juniors Active 145 / 134 40% 6 23.11.2028 -
Lucas Piton Vasco da Gama Active 139 / 140 40% 6 23.11.2028 -
Felipe Peña Biafore Lanús Active 135 / 131 40% 5 22.11.2028 -
José Manuel López Palmeiras Active 137 / 135 40% 8 21.11.2028 -
Juan Ignacio Nardoni Grêmio Active 136 / 134 40% 7 21.11.2028 -
Alejo Veliz Bahia Active 138 / 126 40% 2 21.11.2028 -
Nahuel Tenaglia Banfield Active 134 / 133 40% 5 19.11.2028 -
Santiago Ramos Mingo Bahia Active 132 / 140 40% 4 18.11.2028 -
Martinelli Fluminense Active 145 / 137 40% 8 18.11.2028 -
Alan Velasco Fortaleza Active 136 / 135 40% 1 18.11.2028 -
Babis Kostoulas Oxford United Active 151 / 139 40% 1 18.11.2028 -
Matteo Cancellieri Flamengo Active 144 / 135 40% 1 18.11.2028 -
Léo Pereira Ceará Active 141 / 140 40% 5 17.11.2028 -
Alex Luna Instituto Active 134 / 139 40% 3 16.11.2028 -
Cristian Olivera Grêmio Active 136 / 131 40% 3 16.11.2028 -
Tomás O'Connor Gimnasia y Esgrima Active 122 / 122 40% 2 16.11.2028 -
Gabriel Martinelli Arsenal Active 171 / 174 40% 1 16.11.2028 -
Alejandro Garnacho Hull City Active 156 / 162 40% 1 16.11.2028 -
Lucca São Paulo Active 119 / 132 40% 2 14.11.2028 -
Lionel Verde Unión de Santa Fe Active 118 / 130 40% 1 14.11.2028 -
Paulo Henrique Vasco da Gama Active 133 / 136 40% 12 12.11.2028 -
Danilo Botafogo Active 147 / 136 40% 15 12.11.2028 -
Enzo Díaz Sport Recife Active 130 / 120 40% 8 10.11.2028 -
Gustavo Marques Bragantino Active 134 / 120 40% 4 09.11.2028 -
Luciano Juba Bahia Active 142 / 139 40% 6 09.11.2028 -
Bruno Gomes Internacional Active 130 / 126 40% 9 08.11.2028 -
Jonathan De Irastorza Independiente Active 136 / 127 40% 5 07.11.2028 -
Ignacio Maestro Puch Independiente Active 127 / 135 40% 2 07.11.2028 -
Santiago Sosa Vasco da Gama Active 134 / 143 40% 7 05.11.2028 -
Guilherme Arana Fluminense Active 135 / 141 40% 7 04.11.2028 -
Gonzalo Tapia São Paulo Active 137 / 121 40% 1 04.11.2028 -
Jayden Danns Bradford City Active 149 / 132 40% 4 03.11.2028 -
Riku Yamane Yokohama F. Marinos Active 140 / 143 40% 4 01.11.2028 -
Bruno Barticciotto Talleres Active 134 / 134 40% 1 30.10.2028 -
Facundo Farías Estudiantes Active 126 / 120 40% 1 30.10.2028 -
Daniel Barrea Godoy Cruz Active 129 / 130 40% 1 30.10.2028 -
Gabriel Bontempo Sport Recife Active 135 / 128 40% 1 28.10.2028 -
Wesley Al-Nassr Active 133 / 114 40% 1 28.10.2028 -
Jeremías Merlo Gimnasia La Plata Active 122 / 123 40% 1 28.10.2028 -
Vitinho Botafogo Active 141 / 147 40% 15 26.10.2028 -
Juan Pablo Freytes Fluminense Active 133 / 121 40% 6 25.10.2028 -
Franco Ibarra Rosario Central Active 131 / 136 40% 5 23.10.2028 -
Santiago González Tigre Active 128 / 136 40% 9 22.10.2028 -
Matías Galarza Talleres Active 131 / 123 40% 1 22.10.2028 -
Geovany Quenda Watford Active 153 / 171 40% 1 21.10.2028 -
Marcos Antonio Sport Recife Active 145 / 133 40% 8 17.10.2028 -
Gonzalo Plata Nacional Active 138 / 143 40% 1 17.10.2028 -
Luis Vázquez Mamelodi Sundowns Active 141 / 135 40% 1 17.10.2028 -
Kevin Castaño River Plate Active 135 / 136 40% 3 13.10.2028 -
Ismaël Bennacer Boca Juniors Active 144 / 141 40% 1 12.10.2028 -
Lautaro Vargas Unión de Santa Fe Active 127 / 123 40% 1 11.10.2028 -
Iñaki Larthirigoyen San Telmo Active 123 / 112 40% 1 11.10.2028 -
Marcos López Gimnasia La Plata Active 135 / 128 40% 3 09.10.2028 -
Agustín Giay Palmeiras Active 139 / 149 40% 9 05.10.2028 -
Gonzalo Montiel River Plate Active 126 / 130 40% 2 04.10.2028 -
Braian Aguirre Internacional Active 130 / 133 40% 3 02.10.2028 -
Gastón Martirena Racing Club Active 128 / 133 40% 4 01.10.2028 -
Hércules Internacional Active 133 / 128 40% 2 30.09.2028 -
Naves Internacional Active 130 / 130 40% 1 16.09.2028 -
Damián Fernández Defensa y Justicia Active 128 / 132 40% 1 15.09.2028 -
Lucas Martínez Quarta Central Córdoba SdE Active 126 / 129 40% 1 09.09.2028 -
Lucas Paquetá Flamengo Active 140 / 140 40% 5 01.09.2028 -
Damián Bobadilla Sport Recife Active 138 / 134 40% 5 29.08.2028 -
Kilian Fischer VfL Wolfsburg Active 148 / 143 40% 1 21.08.2028 -
Matteo Gabbia Genoa Active 151 / 169 40% 2 19.08.2028 -
Thierry Rendall Correia Venezia Active 146 / 140 40% 2 19.08.2028 -
Devyne Rensch Virtus Entella Active 150 / 138 40% 1 19.08.2028 -
Angeliño AS Roma Active 152 / 166 40% 3 18.08.2028 -
Alessandro Buongiorno Cagliari Active 169 / 160 40% 2 18.08.2028 -
Tommaso Barbieri Cremonese Active 146 / 143 40% 1 18.08.2028 -
Antoine Hainaut Venezia Active 139 / 130 40% 1 17.08.2028 -
Eivind Helland AC Milan Active 151 / 147 40% 1 17.08.2028 -
Morten Frendrup Palermo Active 154 / 156 40% 1 17.08.2028 -
Manu Koné AS Roma Active 174 / 182 40% 9 15.08.2028 -
Evan N'Dicka AS Roma Active 171 / 151 40% 3 15.08.2028 -
Matteo Prati Cagliari Active 148 / 138 40% 1 15.08.2028 -
Juan Miranda Bologna Active 153 / 156 40% 1 14.08.2028 -
Oumar Solet Udinese Active 158 / 167 40% 1 14.08.2028 -
Rafa Marín Pisa Active 165 / 156 40% 1 13.08.2028 -
Pervis Estupiñán AC Milan Active 154 / 144 40% 1 13.08.2028 -
Josh Doig Avellino Active 144 / 151 40% 1 13.08.2028 -
Khéphren Thuram Juventus Active 164 / 176 40% 2 11.08.2028 -
Enrico Delprato Parma Active 146 / 146 40% 1 11.08.2028 -
Gianluca Busio Venezia Active 143 / 146 40% 1 10.08.2028 -
Odilon Kossounou Atalanta Active 153 / 144 40% 1 10.08.2028 -
Welington Southampton Active 136 / 151 40% 3 09.08.2028 -
Matteo Ruggeri Middlesbrough Active 163 / 144 40% 2 09.08.2028 -
Callum Brittain Middlesbrough Active 139 / 143 40% 7 08.08.2028 -
Vitaly Janelt Derby County Active 156 / 137 40% 3 08.08.2028 -
Andrey Santos Bolton Wanderers Active 146 / 147 40% 2 08.08.2028 -
Max Bird Birmingham Active 141 / 146 40% 9 07.08.2028 -
Alfie Doughty Millwall Active 133 / 134 40% 2 07.08.2028 -
Largie Ramazani Leeds United Active 145 / 141 40% 1 07.07.2028 -
Yassir Zabiri Stade Rennais Active 142 / 148 40% 1 07.07.2028 -
Zito Luvumbo Cagliari Active 143 / 137 40% 9 05.07.2028 -
Aune Heggebø West Bromwich Albion Active 128 / 144 40% 1 05.07.2028 -
Rodrigo Muniz Fulham Active 150 / 143 40% 9 03.07.2028 -
William Osula Wrexham Active 136 / 127 40% 6 03.07.2028 -
Sam Greenwood Bristol City Active 138 / 123 40% 2 03.07.2028 -
Mohamed-Ali Cho Hull City Active 145 / 154 40% 9 01.07.2028 -
Sebastiano Esposito Cagliari Active 154 / 137 40% 6 30.06.2028 -
Yousef Salech Cardiff City Active 136 / 130 40% 3 28.06.2028 -
Gustavo Neves Bragantino Active 135 / 140 79% 1 26.06.2028 -
Tyreece Campbell Charlton Athletic Active 125 / 121 40% 1 24.06.2028 -
Oliver Dovin Coventry City Active 140 / 146 40% 1 19.06.2028 -
Caoimhin Kelleher Brentford Active 165 / 146 40% 1 19.06.2028 -
Michele Di Gregorio Juventus Active 150 / 159 40% 1 19.06.2028 -
Ben Gannon Doak Charlton Athletic Active 148 / 152 40% 1 13.06.2028 -
Jaden Philogene Wolverhampton Active 151 / 159 40% 1 31.05.2028 -
Fábio Carvalho Brentford Active 147 / 142 40% 9 30.05.2028 -
Thiago Brentford Active 154 / 164 40% 8 30.05.2028 -
Jayden Bogle Leeds United Active 139 / 140 40% 4 30.05.2028 -
Shea Charles Southampton Active 148 / 139 40% 3 29.05.2028 -
Neco Williams Wrexham Active 150 / 135 40% 2 29.05.2028 -
André Wolverhampton Active 157 / 147 40% 4 26.05.2028 -
Iliman N'Diaye Everton Active 158 / 173 40% 7 26.05.2028 -
Ismaïla Sarr Crystal Palace Active 152 / 152 40% 14 24.05.2028 -
Charles De Ketelaere Tottenham Active 159 / 147 40% 4 22.05.2028 -
Jarrod Bowen West Ham United Active 152 / 158 40% 4 21.05.2028 -
Morgan Rogers Chelsea Active 165 / 177 40% 3 21.05.2028 -
Evann Guessand Aston Villa Active 156 / 146 40% 4 20.05.2028 -
Giacomo Raspadori Atalanta Active 151 / 156 40% 3 18.05.2028 -
Boubacar Kamara Aston Villa Active 169 / 155 40% 6 17.05.2028 -
Callum O'Hare Sheffield United Active 133 / 136 40% 10 16.05.2028 -
Bafodé Diakité Plymouth Argyle Active 150 / 152 40% 4 15.05.2028 -
Timothy Castagne Stoke City Active 137 / 132 40% 1 15.05.2028 -
Jhon Solís Birmingham Active 136 / 143 40% 1 14.05.2028 -
Óscar Mingueza Crystal Palace Active 158 / 160 40% 4 12.05.2028 -
Maximiliano Araújo West Ham United Active 153 / 146 40% 3 12.05.2028 -
Manuel Ugarte Leicester City Active 155 / 155 40% 2 12.05.2028 -
Pedro Porro Tottenham Active 158 / 156 40% 5 09.05.2028 -
Tammy Abraham Aston Villa Active 145 / 158 40% 8 09.05.2028 -
Taiwo Awoniyi Middlesbrough Active 147 / 144 40% 5 09.05.2028 -
Moisés Caicedo Chelsea Active 167 / 171 40% 4 08.05.2028 -
Musa Barrow ES Setif Active 138 / 154 40% 7 01.05.2028 -
Emanuel Emegha Chelsea Active 148 / 161 40% 4 30.04.2028 -
Dominic Solanke Tottenham Active 150 / 137 40% 5 28.04.2028 -
Archie Gray Southampton Active 157 / 152 40% 1 25.04.2028 -
Christian Pulisic AC Milan Active 169 / 154 40% 8 20.04.2028 -
Kevin Schade Chelsea Active 150 / 163 40% 2 18.04.2028 -
Nicolás González Juventus Active 155 / 164 40% 2 11.04.2028 -
Georginio Rutter Brighton Active 149 / 144 40% 7 24.03.2028 -
João Pedro Chelsea Active 162 / 161 40% 5 22.03.2028 -
Pedro Flamengo Active 150 / 153 40% 6 06.03.2028 -
Dwight McNeil Crystal Palace Active 152 / 156 40% 2 27.02.2028 -
Liel Abada Inter Miami CF Active 142 / 127 40% 1 27.02.2028 -
Martín Ojeda Orlando City Active 137 / 139 40% 3 21.02.2028 -
Alex Scott Bournemouth Active 155 / 144 40% 4 19.02.2028 -
Eddie Nketiah Crystal Palace Active 146 / 148 40% 2 11.02.2028 -
Mats Wieffer Brighton Active 147 / 136 40% 2 09.02.2028 -
Matheus Pereira Fortaleza Active 131 / 134 40% 4 11.01.2028 -
Henry Mosquera Bragantino Active 138 / 136 79% 3 11.01.2028 Strong Approve
Nuno Moreira Vasco da Gama Active 137 / 119 40% 1 09.01.2028 -
Benjamín Rollheiser Santos Active 139 / 121 40% 1 09.01.2028 -
Maurício Palmeiras Active 134 / 123 40% 1 06.01.2028 -
Jhon Arias Palmeiras Active 139 / 130 40% 1 06.01.2028 -
Facundo Colidio Vasco da Gama Active 131 / 121 40% 1 06.01.2028 Needs More Info
Allan Saint-Maximin Charlotte Football Club Active 137 / 150 40% 2 04.01.2028 -
Ramón Sosa Palmeiras Active 139 / 138 40% 1 04.01.2028 -
Anthony Patterson Wrexham Active 140 / 122 40% 1 28.12.2027 -
Sol Brynn Bradford City Active 137 / 127 40% 1 28.12.2027 -
Dayne St. Clair Inter Miami CF Active 125 / 132 40% 1 28.12.2027 -
Jorge Carrascal Flamengo Active 139 / 131 40% 1 30.11.2027 -
Marco Di Cesare Racing Club Active 133 / 120 40% 4 26.11.2027 -
Emerson Royal Flamengo Active 134 / 148 40% 3 21.11.2027 -
Nicolás Romero Minnesota United FC Active 125 / 134 40% 2 18.11.2027 -
Ignacio Vázquez Platense Active 129 / 130 40% 6 17.11.2027 -
Arthur Flamengo Active 137 / 135 40% 5 16.11.2027 -
Breno Bidon Corinthians Active 126 / 126 40% 4 16.11.2027 -
Lucas Veríssimo Santos Active 141 / 131 40% 3 12.11.2027 -
Facundo Mura Inter Miami CF Active 130 / 140 40% 4 11.11.2027 -
David Brekalo Orlando City Active 128 / 136 40% 3 10.11.2027 -
Niklas Dorsch Toronto FC Active 127 / 144 40% 4 28.10.2027 -
Marcel Hartel St. Louis CITY SC Active 126 / 145 40% 4 17.10.2027 -
Guga Fluminense Active 131 / 126 40% 5 10.10.2027 -
Emanuel Mammana Vélez Active 134 / 129 40% 1 07.10.2027 -
Juan Carlos Portillo River Plate Active 129 / 119 40% 2 03.10.2027 -
Lucas Sanabria LA Galaxy Active 127 / 140 40% 2 17.09.2027 -
Fredrik Bjørkan Bodo/Glimt Active 124 / 109 40% 1 15.09.2027 -
Takahiro Sekine Sydney FC Active 137 / 114 40% 1 11.09.2027 -
Renato Tapia Al Wasl Active 147 / 129 40% 1 25.08.2027 -
César Inga Universitario Active 135 / 135 40% 1 23.08.2027 -
Valentino Lazaro Al Ain Active 150 / 123 40% 1 22.08.2027 -
Conrad Wallem Djurgarden Active 136 / 141 40% 1 21.08.2027 -
Alessandro Bastoni Inter Active 171 / 182 40% 1 19.08.2027 -
Rolando Mandragora Torino Active 152 / 143 40% 1 19.08.2027 -
André-Franck Zambo Anguissa Napoli Active 169 / 147 40% 8 17.08.2027 -
Sebastiano Luperto Cremonese Active 144 / 150 40% 1 17.08.2027 -
Nicolò Rovella Lazio Active 158 / 143 40% 2 16.08.2027 -
Lewis Ferguson Bologna Active 143 / 164 40% 1 13.08.2027 -
Arthur Atta Fiorentina Active 149 / 134 40% 1 12.08.2027 -
Mitchel Bakker Modena Active 131 / 116 40% 1 10.08.2027 -
Raoul Bellanova Atalanta Active 157 / 149 40% 1 10.08.2027 -
Mehdi Dorval Catanzaro Active 137 / 119 40% 1 10.08.2027 -
Harry Clarke Preston Active 127 / 119 40% 7 09.08.2027 -
Max Johnston Derby County Active 128 / 136 40% 4 08.08.2027 -
Hidemasa Morita Hull City Active 143 / 143 40% 6 07.08.2027 -
Amadou Onana Aston Villa Active 159 / 151 40% 3 05.08.2027 -
Jonathan Varane Queens Park Rangers Active 130 / 140 40% 1 05.08.2027 -
Yeremy Pino Crystal Palace Active 149 / 151 40% 1 20.07.2027 -
Gianluca Scamacca Atalanta Active 152 / 163 40% 3 21.06.2027 -
Milan van Ewijk Coventry City Active 136 / 141 40% 8 29.05.2027 -
Olivier Boscagli Brighton Active 150 / 148 40% 2 29.05.2027 -
Dara O'Shea Ipswich Town Active 139 / 139 40% 5 26.05.2027 -
Jacob Greaves Ipswich Town Active 136 / 139 40% 9 24.05.2027 -
Jarrad Branthwaite Everton Active 150 / 157 40% 2 24.05.2027 -
Juanlu Bournemouth Active 143 / 164 40% 3 23.05.2027 -
James Garner Everton Active 145 / 134 40% 1 23.05.2027 -
Nordi Mukiele Sunderland Active 147 / 161 40% 4 22.05.2027 -
Tino Livramento Newcastle United Active 151 / 159 40% 2 22.05.2027 -
Brooke Norton-Cuffy Hull City Active 142 / 141 40% 5 21.05.2027 -
Azor Matusiwa Ipswich Town Active 136 / 126 40% 6 21.05.2027 -
Lorenzo Colombo Genoa Active 145 / 120 40% 2 21.05.2027 -
James Trafford Leeds United Active 140 / 148 40% 3 20.05.2027 -
Joseph Leclercq Tottenham Active 151 / 163 40% 1 20.05.2027 -
Leon Goretzka Aston Villa Active 148 / 163 40% 15 18.05.2027 -
Yehor Yarmoliuk Brentford Active 153 / 161 40% 1 18.05.2027 -
Xaver Schlager Nottingham Forest Active 145 / 146 40% 3 17.05.2027 -
Robin Roefs Sunderland Active 142 / 142 40% 2 16.05.2027 -
Cody Gakpo Liverpool Active 165 / 157 40% 1 16.05.2027 -
Mile Svilar AS Roma Active 159 / 149 40% 1 16.05.2027 -
Jake O'Brien Everton Active 142 / 138 40% 1 12.05.2027 -
Matthew Targett Hull City Active 129 / 130 40% 4 02.05.2027 -
Dennis Cirkin Queens Park Rangers Active 134 / 129 40% 1 02.05.2027 -
Taty Castellanos West Ham United Active 153 / 131 40% 2 01.05.2027 -
Jørgen Strand Larsen Brighton Active 145 / 129 40% 2 25.04.2027 -
Quinten Timber Crystal Palace Active 157 / 153 40% 1 24.04.2027 -
Lewis Hall Newcastle United Active 145 / 152 40% 1 20.04.2027 -
Maxence Lacroix Chelsea Active 149 / 149 40% 1 19.04.2027 -
Kyle Walker-Peters West Ham United Active 142 / 140 40% 3 18.04.2027 -
Fran Vieites Walsall Active 119 / 126 40% 1 18.04.2027 -
Elia Caprile Cagliari Active 139 / 159 40% 1 18.04.2027 -
Florentino Luís Ipswich Town Active 147 / 139 40% 7 15.04.2027 -
Nicolò Tresoldi Club Brugge Active 139 / 118 40% 2 12.04.2027 -
Vedat Muriqi Fenerbahce Active 143 / 152 40% 1 10.04.2027 -
Kenny Tete Fulham Active 145 / 130 40% 2 07.04.2027 -
Oliver Skipp Leicester City Active 135 / 113 40% 1 07.04.2027 -
Luke McNally Bristol City Active 130 / 130 40% 4 06.04.2027 -
Diego Gómez Brighton Active 148 / 162 40% 1 02.04.2027 -
Tomáš Souček West Ham United Active 137 / 131 40% 1 02.04.2027 -
Enzo Barrenechea Benfica Active 145 / 155 40% 15 27.03.2027 -
Bright Arrey-Mbi Braga Active 139 / 124 40% 8 27.03.2027 -
Alberto Costa Porto Active 151 / 162 40% 13 26.03.2027 -
Dinis Pinto Moreirense Active 131 / 132 40% 8 26.03.2027 -
Rodrigo Pinheiro Famalicao Active 129 / 135 40% 1 24.03.2027 -
Iván Fresneda Sporting CP Active 146 / 152 40% 9 22.03.2027 -
Javi Sánchez Arouca Active 136 / 130 40% 4 22.03.2027 -
Sikou Niakaté Braga Active 140 / 124 40% 2 20.03.2027 -
Eduardo Quaresma Sporting CP Active 144 / 144 40% 5 20.03.2027 -
Víctor Gómez Braga Active 143 / 143 40% 15 19.03.2027 -
Andrea Pinamonti Lazio Active 134 / 137 40% 1 17.03.2027 -
Jordan Holsgrove Estoril Praia Active 135 / 145 40% 4 15.03.2027 -
Mathias De Amorim Famalicao Active 126 / 116 40% 3 15.03.2027 -
Dawda Camara Alverca Active 124 / 130 40% 1 14.03.2027 -
Denis Huseinbašić Braga Active 124 / 123 40% 1 11.03.2027 -
Pablo Rosario Porto Active 143 / 154 40% 14 10.03.2027 -
Tomás Araújo Benfica Active 145 / 160 40% 2 08.03.2027 -
Toby Collyer West Bromwich Albion Active 132 / 149 40% 2 07.03.2027 -
Jean-Baptiste Gorby Braga Active 135 / 117 40% 2 05.03.2027 -
Zeno Debast Sporting CP Active 135 / 130 40% 1 04.03.2027 -
Gabriel Brazão Santos Active 133 / 128 40% 1 03.03.2027 -
Pau Víctor Braga Active 146 / 135 40% 8 02.03.2027 -
Brian Brobbey Sunderland Active 134 / 131 40% 2 02.03.2027 -
Sidney Lima Santa Clara Active 133 / 143 40% 2 02.03.2027 -
Toti Wolverhampton Active 130 / 145 40% 1 02.03.2027 -
Teboho Mokoena Mamelodi Sundowns Active 139 / 123 40% 1 21.02.2027 -
Luís Esteves Atlas Active 132 / 112 40% 2 19.02.2027 -
Adonis Frías Atlas Active 125 / 144 40% 3 18.02.2027 -
Rubén Duarte Pumas UNAM Active 133 / 126 40% 5 17.02.2027 -
Nathan Silva Pumas UNAM Active 126 / 119 40% 1 15.02.2027 -
Bilal Bayazıt Kayserispor Active 123 / 133 40% 1 13.02.2027 -
Nicolás Ibáñez Cruz Azul Active 142 / 118 40% 1 08.02.2027 -
Ricardo Horta Braga Active 153 / 133 40% 4 03.02.2027 -
Diego Rossi Monterrey Active 134 / 132 40% 1 03.02.2027 -
Jesús Gallardo Toluca Active 139 / 123 40% 1 02.02.2027 -
Joe Gelhardt Hull City Active 124 / 127 40% 2 27.01.2027 -
Aaron Hickey Brentford Active 145 / 133 40% 1 24.01.2027 -
Gustavo Silva Vitoria Guimaraes Active 119 / 122 40% 2 22.01.2027 -
Talisca Fenerbahce Active 154 / 129 40% 2 18.01.2027 -
Rodrigo Echeverría Leon Active 132 / 143 40% 1 17.01.2027 -
Rafael Navarro Famalicao Active 121 / 130 40% 1 17.01.2027 -
Dylan Nandín Arouca Active 116 / 129 40% 1 17.01.2027 -
Andrew Robertson Tottenham Active 152 / 155 40% 2 12.01.2027 -
Joaquim Tigres Active 130 / 125 40% 1 11.01.2027 -
Wesley Saïd RC Lens Active 135 / 117 40% 1 10.01.2027 -
Leandro Barreiro Benfica Active 141 / 146 40% 4 04.01.2027 -
Sorriso Famalicao Active 126 / 113 40% 3 03.01.2027 -
Yanis Begraoui Estoril Praia Active 133 / 127 40% 2 02.01.2027 -
André Lacximicant Estoril Praia Active 116 / 104 40% 1 02.01.2027 -
Eduardo Lozano Botafogo Active 139 / 154 40% 1 29.12.2026 -
Odsonne Édouard Olympique Lyonnais Active 138 / 126 40% 1 28.12.2026 -
Ayase Ueda LOSC Lille Active 138 / 142 40% 2 25.12.2026 -
Petar Musa FC Dallas Active 130 / 134 40% 1 25.12.2026 -
Romarinho Criciuma Active 122 / 120 72% 1 21.12.2026 Approve
Hamza Igamane LOSC Lille Active 139 / 149 40% 1 21.12.2026 -
Gabriel Silva Braga Active 127 / 127 40% 1 16.12.2026 -
Vinícius Lopes Santa Clara Active 127 / 134 40% 1 07.12.2026 -
Matheuzinho Vitória Active 126 / 122 72% 1 06.12.2026 Approve
Pepê Porto Active 149 / 161 40% 8 28.11.2026 -
João Carvalho Estoril Praia Active 142 / 146 40% 3 28.11.2026 -
Carlos Álvarez Club America Active 129 / 120 40% 5 27.11.2026 -
Fredrik Aursnes Benfica Active 140 / 161 40% 5 25.11.2026 -
Heorhii Sudakov Benfica Active 141 / 162 40% 10 25.11.2026 -
William Gomes Porto Active 149 / 133 40% 6 17.11.2026 -
Geny Sporting CP Active 150 / 150 40% 7 09.11.2026 -
Rodrigo Garro Corinthians Active 142 / 126 40% 1 07.11.2026 -
Carlos Rodríguez Cruz Azul Active 129 / 134 40% 2 04.11.2026 -
Victor Froholdt Porto Active 143 / 141 40% 9 01.11.2026 -
Che Adams Torino Active 130 / 130 40% 1 30.10.2026 -
Francisco Moura Porto Active 137 / 131 40% 1 28.10.2026 -
Samuel Dahl Benfica Active 128 / 129 40% 3 23.10.2026 -
Agustín Palavecino Cruz Azul Active 127 / 118 40% 2 15.10.2026 -
Andreas Schjelderup Benfica Active 133 / 135 40% 1 15.10.2026 -
Andreas Pereira Palmeiras Active 135 / 138 40% 3 14.10.2026 -
Leroy Sané Galatasaray Active 154 / 159 40% 1 10.10.2026 -
Igor Paixão Olympique de Marseille Active 144 / 157 40% 1 09.10.2026 -
Alexey Miranchuk Atlanta United FC Active 134 / 139 40% 2 07.10.2026 -
John McGinn Aston Villa Active 143 / 144 40% 1 03.10.2026 -
Sergi Altimira Sporting CP Active 128 / 123 40% 3 30.09.2026 -
Lisandro Martínez Ajax Active 144 / 161 40% 1 29.09.2026 -
Nehuén Pérez Porto Active 150 / 124 40% 1 29.09.2026 -
Elliot Anderson Manchester City Active 158 / 138 40% 1 22.09.2026 -
Donyell Malen AS Roma Active 142 / 157 40% 2 14.09.2026 -
Amine Gouiri Olympique de Marseille Active 142 / 131 40% 1 14.09.2026 -
Roberto Fernández Braga Active 140 / 155 40% 4 03.09.2026 -
Ollie Watkins Al-Hilal Active 149 / 133 40% 1 02.09.2026 -
Luis Romo Guadalajara Active 128 / 148 40% 1 20.08.2026 -
Fernando Gorriarán Tigres Active 129 / 145 40% 1 18.08.2026 -
Alejandro Zendejas Club America Active 134 / 119 40% 2 16.08.2026 -
Kaoru Mitoma Brighton Active 163 / 139 40% 1 13.08.2026 -
Dodi Lukébakio Benfica Active 144 / 135 40% 1 09.08.2026 -
Alexander Sørloth Atlético Madrid Active 148 / 136 40% 1 09.08.2026 -
Nuno Santos Sporting CP Active 127 / 147 40% 1 06.08.2026 -
Marc Cucurella Real Madrid Active 155 / 143 40% 1 06.08.2026 -
Antonee Robinson Fulham Active 151 / 164 40% 1 03.08.2026 -
Alejandro Grimaldo Atlético Madrid Active 164 / 163 40% 1 01.08.2026 -
Jorge De Frutos Rayo Vallecano Active 154 / 151 40% 1 01.08.2026 -